createdAt,value
2024-04-19T00:01:52.452Z,0.99
2024-04-19T00:04:20.216Z,0.97
2024-04-19T00:06:48.481Z,0.96
2024-04-19T00:09:16.415Z,0.95
2024-04-19T00:11:44.116Z,0.92
2024-04-19T00:14:12.074Z,0.90
2024-04-19T00:16:39.892Z,0.89
2024-04-19T00:19:07.592Z,0.86
2024-04-19T00:21:35.336Z,0.84
2024-04-19T00:24:03.146Z,0.81
2024-04-19T00:26:30.789Z,0.79
2024-04-19T00:28:58.407Z,0.77
2024-04-19T00:31:26.025Z,0.75
2024-04-19T00:33:53.729Z,0.73
2024-04-19T00:36:22.041Z,0.71
2024-04-19T00:39:18.457Z,0.69
2024-04-19T00:41:46.041Z,0.67
2024-04-19T00:44:13.650Z,0.65
2024-04-19T00:46:41.331Z,0.64
2024-04-19T00:49:29.162Z,0.63
2024-04-19T00:51:57.870Z,0.62
2024-04-19T00:54:26.055Z,0.61
2024-04-19T00:56:54.475Z,0.60
2024-04-19T00:59:22.477Z,0.59
2024-04-19T01:01:50.444Z,0.58
2024-04-19T01:04:18.496Z,0.58
2024-04-19T01:06:46.369Z,0.57
2024-04-19T01:09:15.419Z,0.57
2024-04-19T01:11:43.379Z,0.55
2024-04-19T01:14:11.060Z,0.54
2024-04-19T01:16:38.645Z,0.54
2024-04-19T01:19:09.444Z,0.54
2024-04-19T01:21:37.582Z,0.53
2024-04-19T01:24:40.685Z,0.53
2024-04-19T01:27:11.514Z,0.51
2024-04-19T01:29:39.616Z,0.51
2024-04-19T01:32:07.635Z,0.50
2024-04-19T01:34:35.266Z,0.49
2024-04-19T01:37:02.856Z,0.48
2024-04-19T01:39:30.527Z,0.47
2024-04-19T01:41:58.399Z,0.45
2024-04-19T01:44:26.125Z,0.43
2024-04-19T01:46:53.748Z,0.42
2024-04-19T01:49:21.590Z,0.40
2024-04-19T01:51:49.225Z,0.39
2024-04-19T01:54:17.013Z,0.37
2024-04-19T01:56:45.567Z,0.36
2024-04-19T01:59:13.817Z,0.35
2024-04-19T02:01:41.499Z,0.33
2024-04-19T02:04:09.239Z,0.32
2024-04-19T02:06:38.271Z,0.30
2024-04-19T02:09:29.566Z,0.29
2024-04-19T02:11:57.204Z,0.28
2024-04-19T02:14:24.996Z,0.27
2024-04-19T02:16:52.958Z,0.26
2024-04-19T02:19:24.559Z,0.26
2024-04-19T02:21:52.235Z,0.24
2024-04-19T02:24:21.598Z,0.23
2024-04-19T02:26:53.156Z,0.21
2024-04-19T02:29:39.755Z,0.19
2024-04-19T02:32:07.493Z,0.17
2024-04-19T02:34:35.358Z,0.16
2024-04-19T02:37:03.686Z,0.14
2024-04-19T02:39:35.107Z,0.12
2024-04-19T02:42:02.817Z,0.10
2024-04-19T02:44:49.135Z,0.07
2024-04-19T02:47:16.956Z,0.05
2024-04-19T02:49:44.863Z,0.05
2024-04-19T02:52:12.494Z,0.03
2024-04-19T02:54:40.299Z,0.02
2024-04-19T02:57:09.459Z,0.01
2024-04-19T02:59:37.100Z,-0.00
2024-04-19T03:02:05.241Z,-0.01
2024-04-19T03:04:38.962Z,-0.03
2024-04-19T03:07:06.634Z,-0.04
2024-04-19T03:09:34.314Z,-0.05
2024-04-19T03:12:02.017Z,-0.06
2024-04-19T03:14:29.711Z,-0.07
2024-04-19T03:16:58.425Z,-0.09
2024-04-19T03:19:44.788Z,-0.08
2024-04-19T03:22:37.322Z,-0.07
2024-04-19T03:25:05.295Z,-0.06
2024-04-19T03:27:33.018Z,-0.03
2024-04-19T03:30:00.636Z,0.00
2024-04-19T03:32:28.489Z,0.05
2024-04-19T03:34:56.338Z,0.11
2024-04-19T03:41:44.498Z,0.30
2024-04-19T03:44:39.539Z,0.41
2024-04-19T03:47:07.861Z,0.51
2024-04-19T03:49:35.483Z,0.62
2024-04-19T03:52:03.230Z,0.71
2024-04-19T03:54:30.996Z,0.83
2024-04-19T03:56:59.014Z,0.93
2024-04-19T03:59:26.637Z,1.05
2024-04-19T04:05:17.530Z,1.49
2024-04-19T04:07:45.186Z,1.62
2024-04-19T04:10:12.907Z,1.70
2024-04-19T04:12:40.670Z,1.78
2024-04-19T04:15:08.547Z,1.85
2024-04-19T04:17:36.409Z,1.91
2024-04-19T04:20:04.585Z,1.94
2024-04-19T04:22:32.395Z,1.96
2024-04-19T04:25:00.257Z,1.98
2024-04-19T04:27:28.020Z,1.99
2024-04-19T04:29:55.657Z,2.02
2024-04-19T04:34:37.692Z,2.09
2024-04-19T04:37:05.541Z,2.12
2024-04-19T04:39:58.761Z,2.14
2024-04-19T04:42:26.560Z,2.19
2024-04-19T04:44:54.389Z,2.23
2024-04-19T04:47:22.030Z,2.28
2024-04-19T04:49:49.854Z,2.34
2024-04-19T04:52:17.471Z,2.40
2024-04-19T04:54:45.626Z,2.60
2024-04-19T04:57:13.438Z,3.52
2024-04-19T04:59:41.148Z,4.89
2024-04-19T05:02:08.778Z,5.90
2024-04-19T05:04:38.942Z,6.41
2024-04-19T05:07:06.595Z,6.75
2024-04-19T05:09:34.467Z,7.00
2024-04-19T05:12:02.963Z,7.30
2024-04-19T05:14:30.717Z,7.55
2024-04-19T05:16:58.875Z,7.70
2024-04-19T05:19:26.599Z,7.89
2024-04-19T05:21:54.242Z,8.02
2024-04-19T05:24:21.944Z,8.01
2024-04-19T05:26:52.620Z,7.93
2024-04-19T05:29:20.413Z,7.87
2024-04-19T05:31:48.077Z,8.11
2024-04-19T05:34:15.680Z,8.23
2024-04-19T05:36:43.768Z,8.21
2024-04-19T05:39:43.013Z,8.08
2024-04-19T05:42:10.722Z,7.84
2024-04-19T05:44:38.460Z,7.63
2024-04-19T05:47:06.326Z,7.46
2024-04-19T05:49:33.925Z,7.30
2024-04-19T05:52:01.844Z,7.22
2024-04-19T05:54:29.419Z,7.21
2024-04-19T05:56:57.169Z,7.19
2024-04-19T05:59:24.805Z,7.19
2024-04-19T06:01:52.687Z,7.18
2024-04-19T06:04:35.916Z,7.20
2024-04-19T06:07:03.749Z,7.25
2024-04-19T06:09:31.475Z,7.31
2024-04-19T06:12:02.436Z,7.35
2024-04-19T06:14:30.399Z,7.39
2024-04-19T06:17:05.292Z,7.46
2024-04-19T06:19:36.310Z,7.61
2024-04-19T06:22:03.982Z,7.79
2024-04-19T06:24:34.698Z,7.93
2024-04-19T06:27:02.460Z,8.01
2024-04-19T06:29:30.097Z,8.06
2024-04-19T06:31:57.779Z,8.09
2024-04-19T06:34:25.474Z,8.10
2024-04-19T06:36:53.114Z,8.11
2024-04-19T06:39:28.317Z,8.19
2024-04-19T06:41:58.474Z,8.43
2024-04-19T06:44:26.736Z,8.79
2024-04-19T06:46:54.612Z,9.32
2024-04-19T06:49:24.435Z,9.68
2024-04-19T06:51:52.149Z,9.91
2024-04-19T06:54:20.287Z,10.06
2024-04-19T06:56:48.312Z,10.10
2024-04-19T06:59:15.902Z,10.11
2024-04-19T07:01:44.647Z,10.09
2024-04-19T07:04:13.586Z,10.09
2024-04-19T07:06:42.963Z,10.21
2024-04-19T07:09:14.763Z,10.44
2024-04-19T07:11:42.711Z,10.84
2024-04-19T07:14:10.351Z,11.21
2024-04-19T07:16:39.296Z,11.63
2024-04-19T07:19:06.959Z,11.95
2024-04-19T07:21:34.562Z,12.35
2024-04-19T07:24:02.181Z,12.89
2024-04-19T07:26:29.906Z,13.40
2024-04-19T07:29:00.887Z,13.74
2024-04-19T07:31:28.536Z,13.64
2024-04-19T07:33:56.289Z,13.24
2024-04-19T07:36:24.704Z,12.74
2024-04-19T07:39:18.170Z,12.20
2024-04-19T07:41:46.040Z,11.55
2024-04-19T07:44:14.446Z,11.03
2024-04-19T07:46:42.122Z,10.52
2024-04-19T07:49:10.136Z,10.08
2024-04-19T07:51:37.852Z,9.72
2024-04-19T07:54:05.504Z,9.42
2024-04-19T07:56:34.887Z,9.18
2024-04-19T07:59:02.550Z,9.05
2024-04-19T08:01:30.544Z,8.98
2024-04-19T08:03:59.875Z,9.32
2024-04-19T08:06:28.641Z,9.89
2024-04-19T08:08:56.517Z,10.23
2024-04-19T08:11:24.345Z,10.30
2024-04-19T08:13:52.085Z,10.29
2024-04-19T08:16:19.740Z,10.19
2024-04-19T08:18:47.427Z,10.04
2024-04-19T08:21:15.039Z,9.93
2024-04-19T08:23:42.621Z,10.07
2024-04-19T08:26:10.183Z,10.36
2024-04-19T08:28:40.089Z,10.52
2024-04-19T08:31:07.739Z,10.80
2024-04-19T08:33:35.493Z,11.12
2024-04-19T08:36:03.356Z,11.17
2024-04-19T08:42:06.021Z,11.58
2024-04-19T08:44:34.329Z,11.94
2024-04-19T08:47:03.401Z,12.19
2024-04-19T08:49:32.180Z,12.26
2024-04-19T08:52:13.940Z,12.25
2024-04-19T08:54:49.882Z,12.46
2024-04-19T08:57:20.316Z,12.72
2024-04-19T08:59:55.421Z,12.91
2024-04-19T09:02:29.592Z,12.94
2024-04-19T09:04:57.195Z,12.92
2024-04-19T09:07:24.876Z,12.82
2024-04-19T09:09:54.389Z,12.64
2024-04-19T09:12:22.234Z,12.36
2024-04-19T09:14:51.220Z,12.05
2024-04-19T09:17:19.447Z,11.98
2024-04-19T09:19:47.807Z,11.99
2024-04-19T09:22:15.831Z,11.92
2024-04-19T09:24:44.493Z,11.72
2024-04-19T09:27:15.968Z,11.55
2024-04-19T09:29:44.686Z,11.66
2024-04-19T09:32:12.463Z,11.80
2024-04-19T09:34:40.207Z,11.73
2024-04-19T09:37:08.798Z,11.57
2024-04-19T09:39:39.459Z,11.31
2024-04-19T09:42:09.242Z,10.98
2024-04-19T09:44:38.446Z,10.74
2024-04-19T09:47:06.869Z,10.63
2024-04-19T09:49:35.601Z,10.46
2024-04-19T09:52:05.946Z,10.37
2024-04-19T09:54:35.524Z,10.47
2024-04-19T09:57:04.732Z,10.70
2024-04-19T09:59:35.284Z,10.73
2024-04-19T10:02:03.727Z,10.70
2024-04-19T10:04:35.433Z,10.85
2024-04-19T10:07:05.630Z,11.18
2024-04-19T10:10:00.034Z,11.44
2024-04-19T10:12:28.456Z,11.60
2024-04-19T10:14:56.207Z,11.90
2024-04-19T10:17:24.505Z,11.96
2024-04-19T10:19:54.789Z,11.90
2024-04-19T10:22:23.348Z,12.12
2024-04-19T10:25:01.612Z,12.49
2024-04-19T10:27:30.805Z,12.82
2024-04-19T10:29:59.964Z,13.05
2024-04-19T10:32:27.675Z,13.08
2024-04-19T10:34:55.795Z,12.82
2024-04-19T10:41:52.236Z,12.09
2024-04-19T10:44:20.908Z,11.84
2024-04-19T10:46:50.867Z,11.63
2024-04-19T10:49:21.843Z,11.59
2024-04-19T10:51:53.352Z,11.62
2024-04-19T10:54:21.206Z,11.65
2024-04-19T10:56:49.079Z,11.68
2024-04-19T10:59:16.844Z,11.74
2024-04-19T11:04:38.665Z,12.22
2024-04-19T11:07:34.127Z,12.39
2024-04-19T11:10:01.965Z,12.64
2024-04-19T11:12:29.996Z,12.89
2024-04-19T11:15:02.633Z,13.09
2024-04-19T11:17:30.422Z,13.14
2024-04-19T11:19:58.250Z,13.27
2024-04-19T11:22:26.116Z,13.38
2024-04-19T11:24:55.148Z,13.25
2024-04-19T11:27:23.293Z,12.93
2024-04-19T11:29:50.982Z,12.63
2024-04-19T11:32:23.649Z,12.35
2024-04-19T11:34:51.306Z,12.13
2024-04-19T11:41:45.883Z,12.00
2024-04-19T11:44:13.718Z,12.11
2024-04-19T11:46:49.706Z,12.16
2024-04-19T11:49:18.224Z,12.33
2024-04-19T11:51:49.938Z,12.52
2024-04-19T11:54:18.779Z,12.67
2024-04-19T11:56:46.585Z,12.85
2024-04-19T11:59:20.518Z,12.95
2024-04-19T12:01:48.757Z,12.94
2024-04-19T12:04:16.649Z,12.77
2024-04-19T12:06:45.199Z,12.55
2024-04-19T12:09:13.331Z,12.34
2024-04-19T12:12:05.488Z,12.16
2024-04-19T12:15:22.515Z,11.85
2024-04-19T12:17:26.975Z,11.47
2024-04-19T12:20:00.567Z,11.06
2024-04-19T12:22:34.205Z,10.76
2024-04-19T12:25:04.554Z,10.75
2024-04-19T12:27:33.078Z,10.94
2024-04-19T12:30:01.155Z,11.22
2024-04-19T12:32:29.166Z,11.49
2024-04-19T12:34:56.886Z,11.65
2024-04-19T12:42:08.180Z,11.42
2024-04-19T12:44:36.212Z,11.27
2024-04-19T12:47:04.309Z,11.19
2024-04-19T12:49:32.352Z,11.13
2024-04-19T12:52:00.267Z,11.09
2024-04-19T12:54:28.077Z,10.98
2024-04-19T12:56:56.708Z,10.82
2024-04-19T12:59:24.801Z,10.66
2024-04-19T13:01:52.716Z,10.49
2024-04-19T13:04:20.968Z,10.29
2024-04-19T13:06:48.940Z,10.08
2024-04-19T13:09:16.818Z,9.91
2024-04-19T13:11:44.536Z,9.74
2024-04-19T13:14:12.128Z,9.55
2024-04-19T13:16:39.967Z,9.34
2024-04-19T13:19:07.783Z,9.21
2024-04-19T13:21:35.609Z,9.17
2024-04-19T13:24:04.129Z,9.20
2024-04-19T13:26:33.145Z,9.30
2024-04-19T13:29:01.074Z,9.43
2024-04-19T13:31:30.375Z,9.56
2024-04-19T13:33:58.284Z,9.69
2024-04-19T13:36:25.990Z,9.83
2024-04-19T13:39:19.549Z,9.94
2024-04-19T13:41:47.284Z,10.03
2024-04-19T13:44:14.915Z,10.08
2024-04-19T13:46:43.054Z,10.10
2024-04-19T13:49:14.888Z,10.10
2024-04-19T13:51:44.265Z,10.07
2024-04-19T13:54:13.457Z,9.99
2024-04-19T13:56:42.571Z,9.90
2024-04-19T13:59:12.720Z,9.81
2024-04-19T14:02:06.848Z,9.72
2024-04-19T14:04:34.839Z,9.61
2024-04-19T14:07:03.238Z,9.53
2024-04-19T14:09:31.192Z,9.48
2024-04-19T14:11:58.950Z,9.44
2024-04-19T14:14:28.374Z,9.42
2024-04-19T14:16:56.292Z,9.41
2024-04-19T14:19:24.627Z,9.42
2024-04-19T14:21:52.812Z,9.43
2024-04-19T14:24:20.828Z,9.33
2024-04-19T14:26:49.257Z,9.26
2024-04-19T14:29:18.031Z,9.19
2024-04-19T14:31:45.728Z,9.08
2024-04-19T14:34:13.555Z,8.93
2024-04-19T14:36:42.958Z,8.78
2024-04-19T14:39:15.062Z,8.66
2024-04-19T14:41:46.090Z,8.56
2024-04-19T14:44:15.041Z,8.46
2024-04-19T14:46:44.470Z,8.33
2024-04-19T14:49:12.572Z,8.16
2024-04-19T14:51:40.425Z,7.96
2024-04-19T14:54:08.220Z,7.67
2024-04-19T14:56:56.760Z,7.26
2024-04-19T14:59:24.994Z,6.82
2024-04-19T15:01:53.068Z,6.41
2024-04-19T15:04:22.327Z,6.13
2024-04-19T15:06:50.258Z,5.94
2024-04-19T15:09:18.014Z,5.81
2024-04-19T15:11:45.783Z,5.70
2024-04-19T15:14:13.427Z,5.61
2024-04-19T15:16:41.353Z,5.56
2024-04-19T15:19:09.072Z,5.51
2024-04-19T15:21:36.816Z,5.47
2024-04-19T15:24:05.183Z,5.42
2024-04-19T15:26:33.003Z,5.37
2024-04-19T15:29:00.706Z,5.34
2024-04-19T15:31:31.899Z,5.35
2024-04-19T15:34:09.694Z,5.38
2024-04-19T15:36:52.145Z,5.41
2024-04-19T15:39:19.892Z,5.45
2024-04-19T15:41:50.137Z,5.47
2024-04-19T15:44:19.519Z,5.50
2024-04-19T15:46:47.395Z,5.52
2024-04-19T15:49:15.189Z,5.53
2024-04-19T15:51:43.166Z,5.56
2024-04-19T15:54:11.080Z,5.57
2024-04-19T15:56:39.010Z,5.59
2024-04-19T15:59:06.720Z,5.62
2024-04-19T16:01:39.940Z,5.65
2024-04-19T16:04:09.095Z,5.68
2024-04-19T16:06:37.275Z,5.72
2024-04-19T16:09:05.102Z,5.77
2024-04-19T16:11:32.816Z,5.82
2024-04-19T16:14:00.594Z,5.85
2024-04-19T16:16:28.228Z,5.90
2024-04-19T16:18:56.567Z,5.96
2024-04-19T16:21:24.428Z,6.02
2024-04-19T16:23:52.117Z,6.04
2024-04-19T16:26:20.079Z,6.07
2024-04-19T16:28:47.969Z,6.11
2024-04-19T16:31:15.671Z,6.14
2024-04-19T16:33:43.597Z,6.20
2024-04-19T16:36:11.497Z,6.23
2024-04-19T16:39:08.404Z,6.24
2024-04-19T16:41:36.363Z,6.24
2024-04-19T16:44:04.123Z,6.21
2024-04-19T16:46:33.036Z,6.18
2024-04-19T16:49:00.837Z,6.16
2024-04-19T16:51:28.633Z,6.13
2024-04-19T16:53:56.547Z,6.12
2024-04-19T16:56:24.231Z,6.07
2024-04-19T16:58:51.901Z,6.01
2024-04-19T17:01:19.806Z,5.97
2024-04-19T17:03:47.801Z,5.93
2024-04-19T17:06:15.607Z,5.88
2024-04-19T17:08:43.385Z,5.84
2024-04-19T17:11:13.599Z,5.81
2024-04-19T17:13:41.415Z,5.79
2024-04-19T17:16:09.302Z,5.76
2024-04-19T17:18:37.176Z,5.75
2024-04-19T17:21:06.081Z,5.72
2024-04-19T17:23:33.855Z,5.72
2024-04-19T17:26:01.636Z,5.71
2024-04-19T17:28:29.445Z,5.69
2024-04-19T17:30:57.740Z,5.66
2024-04-19T17:33:25.686Z,5.63
2024-04-19T17:35:53.535Z,5.61
2024-04-19T17:42:03.985Z,5.55
2024-04-19T17:44:34.724Z,5.51
2024-04-19T17:47:04.743Z,5.49
2024-04-19T17:49:32.614Z,5.48
2024-04-19T17:52:01.387Z,5.47
2024-04-19T17:54:30.344Z,5.44
2024-04-19T17:57:00.649Z,5.41
2024-04-19T17:59:28.654Z,5.36
2024-04-19T18:01:57.169Z,5.31
2024-04-19T18:04:24.847Z,5.28
2024-04-19T18:06:52.534Z,5.24
2024-04-19T18:09:20.445Z,5.20
2024-04-19T18:11:48.057Z,5.18
2024-04-19T18:14:15.700Z,5.16
2024-04-19T18:16:43.362Z,5.15
2024-04-19T18:19:13.644Z,5.15
2024-04-19T18:21:41.543Z,5.12
2024-04-19T18:24:10.771Z,5.10
2024-04-19T18:26:39.328Z,5.08
2024-04-19T18:29:07.324Z,5.06
2024-04-19T18:31:35.076Z,5.05
2024-04-19T18:34:03.467Z,5.04
2024-04-19T18:36:31.585Z,5.02
2024-04-19T18:39:29.658Z,5.02
2024-04-19T18:42:04.100Z,5.01
2024-04-19T18:44:32.077Z,4.99
2024-04-19T18:46:59.904Z,4.97
2024-04-19T18:49:27.880Z,4.95
2024-04-19T18:51:57.628Z,4.93
2024-04-19T18:54:26.091Z,4.92
2024-04-19T18:56:54.410Z,4.91
2024-04-19T18:59:24.404Z,4.90
2024-04-19T19:04:37.252Z,4.89
2024-04-19T19:07:05.290Z,4.90
2024-04-19T19:09:33.558Z,4.89
2024-04-19T19:12:01.686Z,4.89
2024-04-19T19:14:31.824Z,4.89
2024-04-19T19:17:01.239Z,4.88
2024-04-19T19:19:28.868Z,4.88
2024-04-19T19:21:56.543Z,4.87
2024-04-19T19:24:25.410Z,4.86
2024-04-19T19:26:53.098Z,4.85
2024-04-19T19:29:22.875Z,4.83
2024-04-19T19:31:52.390Z,4.81
2024-04-19T19:34:20.333Z,4.79
2024-04-19T19:36:49.568Z,4.77
2024-04-19T19:39:18.262Z,4.75
2024-04-19T19:41:45.970Z,4.72
2024-04-19T19:44:13.523Z,4.70
2024-04-19T19:46:42.930Z,4.69
2024-04-19T19:49:10.533Z,4.67
2024-04-19T19:51:40.350Z,4.67
2024-04-19T19:54:10.104Z,4.65
2024-04-19T19:56:37.742Z,4.64
2024-04-19T19:59:06.791Z,4.62
2024-04-19T20:01:53.010Z,4.59
2024-04-19T20:04:39.521Z,4.56
2024-04-19T20:07:10.655Z,4.52
2024-04-19T20:09:38.355Z,4.48
2024-04-19T20:12:06.102Z,4.45
2024-04-19T20:14:33.745Z,4.41
2024-04-19T20:17:02.516Z,4.37
2024-04-19T20:19:30.185Z,4.34
2024-04-19T20:21:58.231Z,4.30
2024-04-19T20:24:26.005Z,4.26
2024-04-19T20:26:53.702Z,4.23
2024-04-19T20:29:21.445Z,4.19
2024-04-19T20:31:49.635Z,4.16
2024-04-19T20:34:20.949Z,4.13
2024-04-19T20:36:49.400Z,4.11
2024-04-19T20:40:09.011Z,4.10
2024-04-19T20:42:37.351Z,4.08
2024-04-19T20:45:07.501Z,4.08
2024-04-19T20:47:42.401Z,4.08
2024-04-19T20:50:16.289Z,4.10
2024-04-19T20:52:45.093Z,4.11
2024-04-19T20:55:14.276Z,4.11
2024-04-19T20:57:41.932Z,4.13
2024-04-19T21:00:14.589Z,4.14
2024-04-19T21:02:44.871Z,4.15
2024-04-19T21:05:13.576Z,4.17
2024-04-19T21:07:41.441Z,4.18
2024-04-19T21:10:09.203Z,4.19
2024-04-19T21:12:36.855Z,4.21
2024-04-19T21:15:05.025Z,4.23
2024-04-19T21:17:32.726Z,4.25
2024-04-19T21:20:00.387Z,4.27
2024-04-19T21:22:28.032Z,4.30
2024-04-19T21:24:56.288Z,4.33
2024-04-19T21:27:26.418Z,4.36
2024-04-19T21:29:54.124Z,4.38
2024-04-19T21:32:21.883Z,4.41
2024-04-19T21:34:49.514Z,4.45
2024-04-19T21:41:04.465Z,4.51
2024-04-19T21:43:36.264Z,4.53
2024-04-19T21:46:05.431Z,4.55
2024-04-19T21:48:36.944Z,4.58
2024-04-19T21:51:05.668Z,4.62
2024-04-19T21:53:33.393Z,4.66
2024-04-19T21:56:00.995Z,4.70
2024-04-19T21:58:28.657Z,4.73
2024-04-19T22:00:56.605Z,4.78
2024-04-19T22:03:24.350Z,4.81
2024-04-19T22:05:52.063Z,4.84
2024-04-19T22:08:21.072Z,4.87
2024-04-19T22:10:48.851Z,4.89
2024-04-19T22:13:18.651Z,4.92
2024-04-19T22:15:48.353Z,4.95
2024-04-19T22:18:16.074Z,4.97
2024-04-19T22:20:44.181Z,4.99
2024-04-19T22:23:11.997Z,5.00
2024-04-19T22:25:39.743Z,5.01
2024-04-19T22:28:08.585Z,5.02
2024-04-19T22:30:36.386Z,5.03
2024-04-19T22:33:04.248Z,5.05
2024-04-19T22:35:32.161Z,5.06
2024-04-19T22:39:16.245Z,5.07
2024-04-19T22:41:43.952Z,5.08
2024-04-19T22:44:11.639Z,5.10
2024-04-19T22:46:39.192Z,5.11
2024-04-19T22:49:07.236Z,5.13
2024-04-19T22:51:34.835Z,5.14
2024-04-19T22:54:02.437Z,5.14
2024-04-19T22:56:30.439Z,5.14
2024-04-19T22:58:59.452Z,5.13
2024-04-19T23:01:27.528Z,5.12
2024-04-19T23:03:57.296Z,5.11
2024-04-19T23:06:26.660Z,5.09
2024-04-19T23:08:54.385Z,5.08
2024-04-19T23:11:22.571Z,5.06
2024-04-19T23:13:50.199Z,5.04
2024-04-19T23:16:18.215Z,5.04
2024-04-19T23:18:46.115Z,5.02
2024-04-19T23:21:14.026Z,4.99
2024-04-19T23:23:42.235Z,4.97
2024-04-19T23:26:11.659Z,4.94
2024-04-19T23:28:40.840Z,4.93
2024-04-19T23:31:09.523Z,4.91
2024-04-19T23:33:37.397Z,4.92
2024-04-19T23:36:07.583Z,4.93
2024-04-19T23:39:06.395Z,4.94
2024-04-19T23:41:34.084Z,4.95
2024-04-19T23:44:01.935Z,4.96
2024-04-19T23:46:29.526Z,4.98
2024-04-19T23:48:57.192Z,4.99
2024-04-19T23:51:25.119Z,5.00
2024-04-19T23:53:53.001Z,5.01
2024-04-19T23:56:20.780Z,5.03
2024-04-19T23:58:50.155Z,5.04
